Littleport, United Kingdom
Current Conditions -  °F | °C
As of 2:58 AM on Friday 28 Nov 2014 (Local Time) from EGUN Reporting Station
Haze Haze  
Wind Chill: 50°   Ceiling: 700
Heat Index: 50°   Visibility: 4mi
Dew Point: 49°   Wind: 3mph
Humidity: 96%   Direction: 100°E
Pressure: 29.63"   Gusts: NA
Location:  52.46°N, 0.31°E
Report Text: EGUN 280258Z AUTO 10003KT 6000 R29/1400 BR BKN007 OVC011 10/10 A2963 RMK AO2 CIG 007V009 SLP037 T01020096 53003 $
Loading
Personal Weather Stations






























Interactive Weather Map New forecast layout! Learn more

10-Day Weather Forecast

Advertisements
Track Severe Weather on mobile